Time;durP1;ratioP1;P1;durP2;ratioP2;P2;SDS_P1;SDS_P2;PMS_P1;PMS_P2;Temp;Humidity;BMP_temperature;BMP_pressure;BME280_temperature;BME280_humidity;BME280_pressure;Samples;Min_cycle;Max_cycle;Signal;HPM_P1;HPM_P2
2023/10/26 00:00:35;;;;;;;1.55;0.60;;;;;;;16.38;100.00;99585.84;4963097;28;20041;-76
2023/10/26 00:03:00;;;;;;;0.30;0.30;;;;;;;16.48;100.00;99599.59;4955498;28;20552;-75
2023/10/26 00:05:26;;;;;;;1.17;0.60;;;;;;;16.07;100.00;99526.09;4973514;28;20055;-75
2023/10/26 00:07:52;;;;;;;0.63;0.57;;;;;;;16.48;100.00;99595.16;4967788;28;20486;-75
2023/10/26 00:10:18;;;;;;;0.50;0.50;;;;;;;16.11;100.00;99489.78;4974635;28;20042;-76
2023/10/26 00:12:44;;;;;;;0.20;0.20;;;;;;;16.17;100.00;99498.34;4972113;28;20090;-76
2023/10/26 00:15:09;;;;;;;0.43;0.40;;;;;;;16.60;100.00;99592.06;4967208;28;20509;-76
2023/10/26 00:17:53;;;;;;;0.30;0.30;;;;;;;16.44;100.00;99586.47;4971094;28;20022;-76
2023/10/26 00:20:39;;;;;;;0.77;0.60;;;;;;;16.53;100.00;99593.22;4955881;28;20450;-76
2023/10/26 00:23:10;;;;;;;0.80;0.73;;;;;;;16.51;100.00;99588.91;4953539;28;20054;-79
2023/10/26 00:25:37;;;;;;;1.25;1.13;;;;;;;16.35;100.00;99572.72;4970030;28;20043;-79
2023/10/26 00:32:11;;;;;;;1.45;1.33;;;;;;;16.43;100.00;99590.03;4972708;28;20497;-78
2023/10/26 00:34:37;;;;;;;1.10;1.00;;;;;;;16.45;100.00;99588.19;4951288;28;20094;-78
2023/10/26 00:37:03;;;;;;;1.27;1.05;;;;;;;16.09;100.00;99512.81;4969644;28;20031;-78
2023/10/26 00:39:28;;;;;;;3.67;2.33;;;;;;;15.78;100.00;99469.81;4969392;28;20466;-78
2023/10/26 00:42:48;;;;;;;1.65;1.33;;;;;;;16.41;100.00;99567.19;4975845;28;20111;-79
2023/10/26 00:45:20;;;;;;;0.98;0.90;;;;;;;15.63;100.00;99441.25;4973961;28;20043;-79
2023/10/26 00:47:50;;;;;;;2.25;2.05;;;;;;;15.52;100.00;99435.47;4968957;28;20018;-80
2023/10/26 00:50:17;;;;;;;3.97;2.60;;;;;;;15.73;100.00;99477.06;4969173;28;20134;-80
2023/10/26 00:52:42;;;;;;;1.35;1.20;;;;;;;16.20;100.00;99545.03;4966676;28;20426;-79
2023/10/26 00:55:09;;;;;;;1.90;1.77;;;;;;;16.14;100.00;99522.31;4964016;28;20051;-78
2023/10/26 00:57:35;;;;;;;3.17;1.75;;;;;;;15.59;100.00;99411.41;4965686;28;20085;-79
2023/10/26 01:00:02;;;;;;;2.15;1.95;;;;;;;16.10;100.00;99488.91;4954057;28;20030;-80
2023/10/26 01:02:29;;;;;;;3.05;2.13;;;;;;;15.71;100.00;99428.66;4988130;28;20045;-80
2023/10/26 01:04:54;;;;;;;13.23;3.20;;;;;;;16.24;100.00;99544.84;4965480;28;20042;-80
2023/10/26 01:07:20;;;;;;;1.23;0.95;;;;;;;16.30;100.00;99543.78;4965142;28;20180;-78
2023/10/26 01:09:47;;;;;;;0.57;0.50;;;;;;;16.09;100.00;99537.50;4966949;28;20030;-79
2023/10/26 01:12:24;;;;;;;3.38;3.08;;;;;;;15.87;100.00;99504.78;4962507;28;20173;-79
2023/10/26 01:18:11;;;;;;;0.98;0.73;;;;;;;15.73;100.00;99487.66;4967494;28;20037;-78
2023/10/26 01:20:41;;;;;;;5.20;2.15;;;;;;;15.43;100.00;99425.22;4969576;28;20015;-78
2023/10/26 01:23:14;;;;;;;1.73;1.58;;;;;;;15.59;100.00;99435.22;4970421;28;20530;-78
2023/10/26 01:25:40;;;;;;;12.65;1.48;;;;;;;15.45;100.00;99404.88;4969090;28;20499;-80
2023/10/26 01:28:18;;;;;;;2.50;1.70;;;;;;;16.21;100.00;99544.97;4971354;28;20037;-79
2023/10/26 01:30:43;;;;;;;2.30;1.90;;;;;;;15.92;100.00;99500.19;4964866;28;20054;-79
2023/10/26 01:33:09;;;;;;;1.83;1.67;;;;;;;16.10;100.00;99522.47;4970814;28;20051;-80
2023/10/26 01:35:38;;;;;;;0.95;0.85;;;;;;;15.36;100.00;99388.47;4972818;28;20054;-79
2023/10/26 01:38:12;;;;;;;0.47;0.47;;;;;;;16.20;100.00;99516.78;4974444;28;20122;-78
2023/10/26 01:40:45;;;;;;;5.20;3.85;;;;;;;15.63;100.00;99417.44;4953249;28;20035;-82
2023/10/26 01:43:16;;;;;;;0.27;0.27;;;;;;;15.46;100.00;99382.84;4970970;28;20494;-79
2023/10/26 01:45:41;;;;;;;3.33;2.30;;;;;;;15.39;100.00;99372.47;4970600;28;20437;-78
2023/10/26 01:48:08;;;;;;;1.17;0.88;;;;;;;16.06;100.00;99457.34;4971562;28;20049;-78
2023/10/26 01:50:58;;;;;;;2.15;1.95;;;;;;;16.47;100.00;99529.88;4969610;28;20088;-79
2023/10/26 01:53:25;;;;;;;3.33;1.75;;;;;;;15.51;100.00;99368.53;4965948;28;20368;-78
2023/10/26 01:55:51;;;;;;;1.33;1.23;;;;;;;15.93;100.00;99426.06;4967225;28;20043;-78
2023/10/26 01:58:17;;;;;;;2.80;2.05;;;;;;;15.81;100.00;99416.78;4965063;28;20085;-78
2023/10/26 02:00:43;;;;;;;0.98;0.90;;;;;;;15.50;100.00;99350.06;4964307;28;20035;-79
2023/10/26 02:03:08;;;;;;;1.95;1.30;;;;;;;16.50;100.00;99515.66;4970784;28;20098;-79
2023/10/26 02:05:34;;;;;;;1.92;1.58;;;;;;;15.82;100.00;99404.44;4974965;28;20058;-77
2023/10/26 02:08:12;;;;;;;1.95;1.45;;;;;;;16.67;100.00;99542.38;4969068;28;20042;-78
2023/10/26 02:11:18;;;;;;;2.17;1.75;;;;;;;16.68;100.00;99536.13;4965011;28;20490;-77
2023/10/26 02:17:47;;;;;;;2.78;2.47;;;;;;;16.74;100.00;99529.72;4952909;28;20042;-78
2023/10/26 02:20:20;;;;;;;9.35;4.57;;;;;;;16.10;100.00;99428.06;4954770;28;20057;-81
2023/10/26 02:22:46;;;;;;;1.13;1.02;;;;;;;15.94;100.00;99429.56;4954615;28;20035;-81
2023/10/26 02:25:12;;;;;;;6.57;3.75;;;;;;;15.83;100.00;99408.81;4961807;28;20042;-80
2023/10/26 02:27:38;;;;;;;3.63;2.67;;;;;;;16.36;100.00;99495.88;4965356;28;20506;-81
2023/10/26 02:30:05;;;;;;;1.35;1.05;;;;;;;16.10;100.00;99448.38;4965611;28;20356;-77
2023/10/26 02:32:30;;;;;;;4.88;2.58;;;;;;;16.63;100.00;99544.25;4965060;28;20035;-78
2023/10/26 02:35:11;;;;;;;0.73;0.52;;;;;;;16.09;100.00;99450.16;4962278;28;20074;-77
2023/10/26 02:37:59;;;;;;;3.20;2.90;;;;;;;16.82;100.00;99562.13;4973288;28;20054;-78
2023/10/26 02:40:24;;;;;;;1.25;1.15;;;;;;;16.21;100.00;99521.16;4953877;28;20398;-78
2023/10/26 02:43:01;;;;;;;1.38;1.27;;;;;;;16.59;100.00;99578.88;4957407;28;20051;-77
2023/10/26 02:45:26;;;;;;;3.03;2.13;;;;;;;16.17;100.00;99494.84;4965948;28;20039;-76
2023/10/26 02:47:52;;;;;;;4.10;2.95;;;;;;;16.58;100.00;99540.94;4971574;28;20053;-80
2023/10/26 02:50:18;;;;;;;1.15;0.90;;;;;;;16.39;100.00;99526.69;4969396;28;20055;-80
2023/10/26 02:52:44;;;;;;;1.65;1.55;;;;;;;16.58;100.00;99556.84;4965313;28;20046;-80
2023/10/26 02:55:09;;;;;;;2.17;1.65;;;;;;;16.27;100.00;99503.31;4972572;28;20039;-81
2023/10/26 02:58:16;;;;;;;3.75;2.95;;;;;;;16.45;100.00;99540.53;4968719;28;20046;-79
2023/10/26 03:00:41;;;;;;;1.02;0.93;;;;;;;16.16;100.00;99538.13;4969879;28;20552;-78
2023/10/26 03:03:06;;;;;;;4.40;3.22;;;;;;;16.10;100.00;99527.75;4968391;28;20121;-79
2023/10/26 03:05:33;;;;;;;3.13;1.85;;;;;;;16.36;100.00;99545.31;4973711;28;20371;-80
2023/10/26 03:07:59;;;;;;;1.40;1.30;;;;;;;15.89;100.00;99436.81;4971700;28;20546;-80
2023/10/26 03:10:28;;;;;;;0.63;0.63;;;;;;;16.45;100.00;99515.84;4976977;28;20039;-81
2023/10/26 03:12:53;;;;;;;1.30;1.20;;;;;;;16.50;100.00;99544.78;4951244;28;20059;-80
2023/10/26 03:15:31;;;;;;;2.58;2.38;;;;;;;16.45;100.00;99544.97;4971338;28;20420;-81
2023/10/26 03:17:57;;;;;;;1.58;1.50;;;;;;;16.36;100.00;99532.06;4969395;28;20443;-79
2023/10/26 03:20:22;;;;;;;0.93;0.93;;;;;;;16.50;100.00;99574.78;4966060;28;20033;-79
2023/10/26 03:22:47;;;;;;;2.70;2.47;;;;;;;15.92;100.00;99477.25;4969961;28;20039;-79
2023/10/26 03:25:15;;;;;;;1.27;0.68;;;;;;;16.21;100.00;99536.19;4972481;28;20399;-78
2023/10/26 03:27:41;;;;;;;1.77;1.58;;;;;;;16.00;100.00;99535.19;4973703;28;20043;-78
2023/10/26 03:30:07;;;;;;;1.30;0.65;;;;;;;15.93;100.00;99509.88;4967326;28;20035;-78
2023/10/26 03:32:32;;;;;;;3.35;2.95;;;;;;;15.87;100.00;99513.56;4960660;28;20070;-78
2023/10/26 03:34:59;;;;;;;15.00;3.35;;;;;;;15.91;100.00;99495.81;4960437;28;20059;-77
2023/10/26 03:37:25;;;;;;;4.13;1.35;;;;;;;15.85;100.00;99486.34;4974012;28;20546;-77
2023/10/26 03:40:31;;;;;;;2.83;1.33;;;;;;;16.60;100.00;99599.13;4974002;28;20051;-76
2023/10/26 03:42:56;;;;;;;6.97;4.35;;;;;;;16.49;100.00;99591.59;4973846;28;20050;-79
2023/10/26 03:45:22;;;;;;;3.40;2.55;;;;;;;15.20;100.00;99405.78;4971279;28;20039;-79
2023/10/26 03:47:47;;;;;;;1.73;1.60;;;;;;;16.09;100.00;99560.44;4977065;28;20031;-81
2023/10/26 03:50:13;;;;;;;1.80;1.38;;;;;;;15.77;100.00;99475.16;4974095;28;20050;-79
2023/10/26 03:52:38;;;;;;;1.85;1.55;;;;;;;15.93;100.00;99491.34;4970591;28;20042;-79
2023/10/26 03:55:04;;;;;;;5.70;2.92;;;;;;;16.13;100.00;99547.06;4972272;28;20038;-76
2023/10/26 03:57:32;;;;;;;6.57;3.95;;;;;;;16.13;100.00;99551.47;4973923;28;20070;-78
2023/10/26 03:59:58;;;;;;;1.83;1.10;;;;;;;16.27;100.00;99546.50;4975644;28;20019;-78
2023/10/26 04:02:23;;;;;;;6.38;2.10;;;;;;;16.27;100.00;99559.75;4976200;28;20027;-77
2023/10/26 04:04:50;;;;;;;3.58;1.38;;;;;;;16.24;100.00;99559.88;4976005;28;20387;-78
2023/10/26 04:07:16;;;;;;;16.15;3.22;;;;;;;15.89;100.00;99505.59;4976036;28;20034;-77
2023/10/26 04:09:42;;;;;;;1.85;1.70;;;;;;;15.97;100.00;99567.91;4973129;28;20821;-78
2023/10/26 04:12:08;;;;;;;19.83;2.58;;;;;;;14.90;100.00;99386.56;4968620;28;20041;-76
2023/10/26 04:14:33;;;;;;;40.38;4.65;;;;;;;15.77;100.00;99544.78;4972033;28;20081;-76
2023/10/26 04:17:06;;;;;;;2.83;0.95;;;;;;;15.47;100.00;99459.44;4973870;28;20561;-79
2023/10/26 04:19:33;;;;;;;0.90;0.88;;;;;;;16.02;100.00;99549.22;4972783;28;20129;-79
2023/10/26 04:22:00;;;;;;;1.33;1.23;;;;;;;16.11;100.00;99579.75;4973213;28;20034;-79
2023/10/26 04:24:25;;;;;;;0.75;0.75;;;;;;;16.04;100.00;99590.59;4968412;28;20150;-78
2023/10/26 04:27:26;;;;;;;2.75;2.08;;;;;;;16.14;100.00;99601.69;4961190;28;20023;-78
2023/10/26 04:33:17;;;;;;;11.00;2.92;;;;;;;15.72;100.00;99556.47;4973349;28;20053;-78
2023/10/26 04:39:04;;;;;;;0.60;0.47;;;;;;;15.35;100.00;99463.38;4973616;28;20062;-78
2023/10/26 04:41:32;;;;;;;1.00;0.98;;;;;;;15.39;100.00;99457.06;4975137;28;20451;-77
2023/10/26 04:43:57;;;;;;;3.58;3.28;;;;;;;15.97;100.00;99548.53;5006292;28;20499;-77
2023/10/26 04:46:23;;;;;;;2.97;2.03;;;;;;;15.83;100.00;99568.41;4974488;28;20035;-77
2023/10/26 04:52:15;;;;;;;2.38;2.17;;;;;;;15.97;100.00;99559.13;4974746;28;20042;-78
2023/10/26 04:54:41;;;;;;;5.63;2.22;;;;;;;15.59;100.00;99477.53;4972740;28;20475;-77
2023/10/26 04:57:06;;;;;;;3.63;3.03;;;;;;;16.17;100.00;99569.81;4974445;28;20022;-78
2023/10/26 05:06:53;;;;;;;3.45;2.10;;;;;;;15.95;100.00;99574.19;4974812;28;20085;-78
2023/10/26 05:09:18;;;;;;;2.25;1.38;;;;;;;16.15;100.00;99569.00;4974181;28;20039;-79
2023/10/26 05:11:44;;;;;;;0.65;0.65;;;;;;;15.79;100.00;99528.88;4974613;28;20581;-80
2023/10/26 05:14:10;;;;;;;3.45;2.15;;;;;;;15.58;100.00;99491.66;4972772;28;20050;-79
2023/10/26 05:19:57;;;;;;;2.50;2.17;;;;;;;15.47;100.00;99472.66;4973240;28;20098;-77
2023/10/26 05:22:23;;;;;;;8.10;1.45;;;;;;;15.72;100.00;99512.34;4973791;28;20046;-76
2023/10/26 05:24:48;;;;;;;3.20;1.08;;;;;;;15.63;100.00;99480.91;4972132;28;20042;-73
2023/10/26 05:27:14;;;;;;;0.80;0.63;;;;;;;15.55;100.00;99481.19;4967658;28;20436;-81
2023/10/26 05:29:40;;;;;;;27.85;4.05;;;;;;;15.61;100.00;99477.47;4966893;28;20037;-85
2023/10/26 05:32:06;;;;;;;1.80;1.70;;;;;;;15.96;100.00;99562.66;4967943;28;20046;-85
2023/10/26 05:34:31;;;;;;;13.10;2.78;;;;;;;15.72;100.00;99499.13;4953435;28;20051;-84
2023/10/26 05:36:57;;;;;;;5.05;2.55;;;;;;;15.62;100.00;99473.91;4954596;28;20093;-84
2023/10/26 05:39:22;;;;;;;16.85;3.38;;;;;;;15.54;100.00;99450.38;4952105;28;20054;-83
2023/10/26 05:41:48;;;;;;;3.92;2.38;;;;;;;15.69;100.00;99479.84;4996250;28;20379;-84
2023/10/26 05:44:13;;;;;;;4.95;2.30;;;;;;;15.73;100.00;99471.78;4950626;28;20058;-84
2023/10/26 05:46:39;;;;;;;1.10;0.73;;;;;;;16.24;100.00;99530.75;4932507;28;20040;-83
2023/10/26 05:49:05;;;;;;;1.80;1.67;;;;;;;16.37;100.00;99550.56;4944906;28;20456;-84
2023/10/26 05:51:31;;;;;;;6.15;1.05;;;;;;;15.81;100.00;99484.72;4945286;28;20054;-85
2023/10/26 05:53:57;;;;;;;3.97;3.17;;;;;;;16.23;100.00;99529.03;4947035;28;20031;-86
2023/10/26 06:00:17;;;;;;;9.43;4.50;;;;;;;16.59;100.00;99586.81;4955499;28;20046;-87
2023/10/26 06:03:18;;;;;;;1.33;0.80;;;;;;;16.57;100.00;99593.97;4968787;28;20438;-83
2023/10/26 06:05:59;;;;;;;3.08;2.20;;;;;;;16.08;100.00;99484.59;4971475;28;20047;-87
2023/10/26 06:08:25;;;;;;;2.78;1.60;;;;;;;16.07;100.00;99473.16;4977412;28;20027;-85
2023/10/26 06:10:52;;;;;;;3.25;2.95;;;;;;;16.18;100.00;99480.72;4968725;28;20034;-86
2023/10/26 06:14:01;;;;;;;2.58;2.13;;;;;;;16.72;100.00;99592.53;4974479;28;20039;-86
2023/10/26 06:16:44;;;;;;;3.50;1.45;;;;;;;16.72;100.00;99572.19;4972222;28;20113;-85
2023/10/26 06:19:23;;;;;;;2.20;1.48;;;;;;;16.43;100.00;99500.00;4973959;28;20193;-85
2023/10/26 06:21:49;;;;;;;4.90;1.58;;;;;;;16.67;100.00;99553.81;4969629;28;20068;-85
2023/10/26 06:24:14;;;;;;;2.30;2.03;;;;;;;15.93;100.00;99396.94;4970685;28;20475;-86
2023/10/26 06:26:40;;;;;;;1.45;1.10;;;;;;;17.04;100.00;99568.31;4972472;28;20022;-85
2023/10/26 06:29:45;;;;;;;2.45;2.13;;;;;;;17.13;100.00;99574.16;4970213;28;20074;-87
2023/10/26 06:35:32;;;;;;;0.98;0.90;;;;;;;16.55;100.00;99479.25;4971858;28;20090;-83
2023/10/26 06:37:58;;;;;;;2.40;2.08;;;;;;;16.94;100.00;99543.09;4969761;28;20043;-82
2023/10/26 06:40:24;;;;;;;13.75;3.25;;;;;;;16.70;100.00;99496.34;4970663;28;20499;-82
2023/10/26 06:42:49;;;;;;;0.68;0.57;;;;;;;17.03;100.00;99565.72;4968518;28;20137;-83
2023/10/26 06:45:30;;;;;;;5.10;2.75;;;;;;;16.59;100.00;99489.69;4973610;28;20035;-82
2023/10/26 06:47:55;;;;;;;1.92;1.80;;;;;;;16.84;100.00;99518.75;4973244;28;20027;-83
2023/10/26 06:50:24;;;;;;;3.40;3.10;;;;;;;17.16;100.00;99566.06;4970693;28;20518;-85
2023/10/26 06:57:01;;;;;;;18.58;2.97;;;;;;;17.63;100.00;99557.91;4973070;28;20046;-79
2023/10/26 06:59:27;;;;;;;3.78;1.45;;;;;;;17.05;100.00;99431.34;4960187;28;20055;-77
2023/10/26 07:01:53;;;;;;;1.00;0.93;;;;;;;17.44;100.00;99468.53;4963468;28;20495;-77
2023/10/26 07:04:18;;;;;;;4.32;2.97;;;;;;;17.92;100.00;99524.84;4966326;28;20387;-79
2023/10/26 07:07:02;;;;;;;3.53;2.45;;;;;;;17.99;100.00;99536.06;4964919;28;20383;-81
2023/10/26 07:09:29;;;;;;;5.13;4.22;;;;;;;17.55;100.00;99464.53;4966058;28;20035;-76
2023/10/26 07:12:08;;;;;;;23.80;3.20;;;;;;;17.93;100.00;99516.81;4979225;28;20089;-78
2023/10/26 07:14:36;;;;;;;4.28;2.95;;;;;;;17.81;100.00;99505.88;4964032;28;20174;-78
2023/10/26 07:17:02;;;;;;;6.25;3.28;;;;;;;17.38;100.00;99397.19;4968378;28;20054;-78
2023/10/26 07:19:28;;;;;;;2.35;1.90;;;;;;;17.62;100.00;99444.78;4967031;28;20055;-77
2023/10/26 07:21:54;;;;;;;23.98;1.85;;;;;;;17.68;100.00;99440.06;4971083;28;20035;-77
2023/10/26 07:24:19;;;;;;;2.28;1.75;;;;;;;17.75;100.00;99431.81;4961752;28;20035;-80
2023/10/26 07:26:45;;;;;;;0.80;0.80;;;;;;;18.32;100.00;99521.22;4968867;28;20415;-80
2023/10/26 07:32:42;;;;;;;2.65;2.28;;;;;;;18.55;100.00;99535.25;4977139;28;20367;-79
2023/10/26 07:38:14;;;;;;;8.50;2.03;;;;;;;18.54;100.00;99509.59;4955848;29;20511;-78
2023/10/26 07:40:48;;;;;;;4.22;2.40;;;;;;;18.03;100.00;99412.88;4977014;28;20043;-77
2023/10/26 07:43:13;;;;;;;1.40;1.30;;;;;;;18.02;100.00;99406.69;4969571;28;20051;-77
2023/10/26 07:56:29;;;;;;;1.95;1.58;;;;;;;19.13;100.00;99510.34;4976829;28;20081;-77
2023/10/26 07:58:54;;;;;;;2.85;2.15;;;;;;;19.15;100.00;99517.31;4976275;28;20039;-76
2023/10/26 08:01:20;;;;;;;0.50;0.50;;;;;;;19.16;100.00;99505.72;4974422;28;20043;-76
2023/10/26 08:03:45;;;;;;;3.67;1.67;;;;;;;18.93;100.00;99469.63;4975680;28;20113;-78
2023/10/26 08:09:33;;;;;;;1.42;1.33;;;;;;;18.76;100.00;99419.09;4980325;28;20049;-78
2023/10/26 08:11:58;;;;;;;0.85;0.75;;;;;;;18.99;100.00;99479.13;4974068;28;20035;-80
2023/10/26 08:14:27;;;;;;;3.30;2.92;;;;;;;18.74;100.00;99408.53;4972516;28;20030;-76
2023/10/26 08:16:54;;;;;;;7.13;2.30;;;;;;;19.10;100.00;99471.44;4967977;28;20038;-80
2023/10/26 08:19:22;;;;;;;10.20;1.40;;;;;;;18.88;100.00;99429.13;4967337;28;20389;-80
2023/10/26 08:21:49;;;;;;;7.07;3.78;;;;;;;18.84;100.00;99445.31;4963738;28;20084;-81
2023/10/26 08:24:15;;;;;;;0.63;0.63;;;;;;;19.20;100.00;99493.16;4963953;28;20062;-78
2023/10/26 08:26:43;;;;;;;0.30;0.30;;;;;;;18.62;100.00;99416.25;4966234;28;20463;-79
2023/10/26 08:33:22;;;;;;;5.13;2.33;;;;;;;19.35;100.00;99528.75;4960392;28;20046;-80
2023/10/26 08:35:51;;;;;;;2.53;1.30;;;;;;;19.22;100.00;99501.88;4946455;28;20126;-79
2023/10/26 08:38:17;;;;;;;0.20;0.20;;;;;;;19.50;100.00;99503.13;4967137;28;20546;-80
2023/10/26 08:40:54;;;;;;;1.75;1.13;;;;;;;19.62;100.00;99502.53;4971718;28;20133;-78
2023/10/26 08:43:21;;;;;;;0.88;0.85;;;;;;;19.67;100.00;99510.28;4963199;28;20561;-80
2023/10/26 08:45:47;;;;;;;0.55;0.50;;;;;;;19.29;100.00;99447.47;4969076;28;20121;-78
2023/10/26 08:48:56;;;;;;;1.27;1.15;;;;;;;19.65;100.00;99533.44;4973971;28;20054;-79
2023/10/26 08:51:44;;;;;;;6.32;2.13;;;;;;;19.70;100.00;99524.31;4969869;28;20047;-80
2023/10/26 08:54:09;;;;;;;1.25;1.13;;;;;;;19.30;100.00;99456.28;4968611;28;20078;-78
2023/10/26 09:06:52;;;;;;;0.52;0.50;;;;;;;19.60;100.00;99497.28;4970529;28;20066;-80
2023/10/26 09:09:18;;;;;;;9.82;1.75;;;;;;;19.28;100.00;99419.13;4964675;28;20529;-79
2023/10/26 09:11:48;;;;;;;0.80;0.80;;;;;;;18.78;100.00;99329.53;4972209;28;20031;-76
2023/10/26 09:14:18;;;;;;;0.63;0.50;;;;;;;19.62;100.00;99483.91;4956996;28;20391;-77
2023/10/26 09:16:46;;;;;;;0.28;0.28;;;;;;;19.67;100.00;99465.88;4972459;28;20030;-77
2023/10/26 09:19:16;;;;;;;1.55;1.13;;;;;;;19.92;100.00;99485.91;4981409;28;20037;-78
2023/10/26 09:21:56;;;;;;;0.98;0.90;;;;;;;20.00;100.00;99499.69;4966895;28;20922;-79
2023/10/26 09:24:31;;;;;;;1.13;1.08;;;;;;;20.00;100.00;99492.53;4980998;28;20038;-78
2023/10/26 09:27:26;;;;;;;3.40;2.97;;;;;;;20.03;100.00;99489.69;4959250;28;20498;-80
2023/10/26 09:29:54;;;;;;;0.80;0.80;;;;;;;19.80;100.00;99456.31;4957061;28;20126;-78
2023/10/26 09:32:30;;;;;;;0.50;0.40;;;;;;;20.04;100.00;99466.59;4971856;28;20022;-80
2023/10/26 09:35:43;;;;;;;12.93;3.08;;;;;;;20.07;100.00;99481.56;4958539;28;20063;-79
2023/10/26 09:38:47;;;;;;;9.82;3.67;;;;;;;20.01;100.00;99486.25;4998338;28;20402;-78
2023/10/26 09:41:26;;;;;;;0.35;0.32;;;;;;;20.11;100.00;99472.44;4954957;28;20047;-82
2023/10/26 09:47:10;;;;;;;0.70;0.50;;;;;;;19.53;100.00;99423.19;4954163;28;20055;-81
2023/10/26 09:49:36;;;;;;;2.40;2.20;;;;;;;19.38;100.00;99383.09;4965568;28;20169;-78
2023/10/26 09:52:02;;;;;;;2.33;1.13;;;;;;;19.68;100.00;99400.19;4970129;28;20137;-77
2023/10/26 09:54:37;;;;;;;2.20;0.60;;;;;;;20.18;100.00;99474.72;4973581;28;20107;-77
2023/10/26 09:57:03;;;;;;;5.07;3.58;;;;;;;20.25;100.00;99467.22;4966654;28;20043;-79
2023/10/26 09:59:30;;;;;;;0.60;0.60;;;;;;;20.18;100.00;99461.41;4972020;28;20076;-77
2023/10/26 10:02:36;;;;;;;14.93;1.67;;;;;;;20.20;100.00;99458.63;4968160;28;20383;-79
2023/10/26 10:09:01;;;;;;;7.88;2.75;;;;;;;20.19;100.00;99460.44;4972291;28;20060;-79
2023/10/26 10:11:26;;;;;;;2.88;1.10;;;;;;;20.10;100.00;99428.13;4968177;28;20065;-78
2023/10/26 10:13:55;;;;;;;0.40;0.40;;;;;;;20.39;100.00;99456.69;4957534;28;20447;-80
2023/10/26 10:16:46;;;;;;;0.60;0.60;;;;;;;20.36;100.00;99450.66;4971553;28;20070;-77
2023/10/26 10:26:03;;;;;;;1.00;0.95;;;;;;;20.88;100.00;99439.69;4970328;28;20038;-78
2023/10/26 10:28:41;;;;;;;0.73;0.73;;;;;;;20.55;100.00;99362.50;4970009;28;20468;-80
2023/10/26 10:31:06;;;;;;;0.30;0.30;;;;;;;20.15;100.00;99338.16;4967254;28;20038;-76
2023/10/26 10:33:32;;;;;;;0.10;0.10;;;;;;;20.71;100.00;99376.69;4971473;28;20120;-77
2023/10/26 10:40:22;;;;;;;0.35;0.35;;;;;;;21.14;100.00;99414.19;4968811;28;20202;-79
2023/10/26 10:42:50;;;;;;;0.68;0.55;;;;;;;20.06;100.00;99195.72;4972439;28;20047;-78
2023/10/26 10:52:31;;;;;;;0.35;0.32;;;;;;;21.39;100.00;99384.19;4971009;28;20062;-80
2023/10/26 10:55:03;;;;;;;0.70;0.65;;;;;;;21.61;100.00;99385.56;4964489;28;20051;-79
2023/10/26 10:57:28;;;;;;;0.10;0.10;;;;;;;21.67;100.00;99370.03;4962094;28;20060;-77
2023/10/26 10:59:54;;;;;;;1.00;0.90;;;;;;;21.93;100.00;99380.88;4964903;28;20053;-77
2023/10/26 11:02:35;;;;;;;2.47;0.95;;;;;;;21.99;100.00;99372.47;4970320;28;20459;-75
2023/10/26 11:05:18;;;;;;;0.30;0.30;;;;;;;22.02;100.00;99374.94;4968948;28;20062;-75
2023/10/26 11:07:47;;;;;;;0.20;0.20;;;;;;;21.93;100.00;99375.53;4968830;28;20121;-77
2023/10/26 11:10:32;;;;;;;0.55;0.55;;;;;;;22.01;100.00;99375.91;4974922;28;20537;-76
2023/10/26 11:12:57;;;;;;;0.52;0.40;;;;;;;21.49;100.00;99269.72;4958316;28;20118;-76
2023/10/26 11:15:33;;;;;;;2.65;1.10;;;;;;;22.06;100.00;99347.09;4973313;28;20111;-75
2023/10/26 11:18:00;;;;;;;0.35;0.30;;;;;;;21.87;100.00;99302.00;4972125;28;20380;-76
2023/10/26 11:20:39;;;;;;;1.23;1.13;;;;;;;21.95;100.00;99325.53;4971051;28;20030;-76
2023/10/26 11:23:36;;;;;;;3.75;1.85;;;;;;;22.14;100.00;99350.09;4958475;28;20047;-76
2023/10/26 11:26:14;;;;;;;1.05;0.90;;;;;;;21.81;100.00;99282.84;4973071;28;20039;-74
2023/10/26 11:29:16;;;;;;;12.60;0.95;;;;;;;22.30;100.00;99339.31;4971023;28;20416;-76
2023/10/26 11:32:31;;;;;;;0.70;0.63;;;;;;;22.43;100.00;99343.84;4957544;28;20054;-77
2023/10/26 11:35:10;;;;;;;0.50;0.50;;;;;;;22.26;100.00;99343.13;4960905;28;20057;-75
2023/10/26 11:37:39;;;;;;;0.20;0.20;;;;;;;21.97;100.00;99307.59;4973704;28;20105;-76
2023/10/26 11:43:33;;;;;;;0.10;0.10;;;;;;;22.05;100.00;99302.59;4972440;28;20089;-76
2023/10/26 11:46:05;;;;;;;;;;;;;;;22.34;100.00;99326.59;4974228;28;20495;-76
2023/10/26 11:48:32;;;;;;;1.65;1.33;;;;;;;21.65;100.00;99253.59;4973608;28;19914;-76
2023/10/26 11:57:41;;;;;;;0.10;0.10;;;;;;;22.16;100.00;99293.03;4967422;28;20119;-76
2023/10/26 12:00:15;;;;;;;5.18;0.73;;;;;;;22.17;100.00;99287.56;4967242;28;20019;-76
2023/10/26 12:02:41;;;;;;;0.20;0.20;;;;;;;22.43;100.00;99315.31;4969763;28;20046;-76
2023/10/26 12:11:58;;;;;;;1.15;1.15;;;;;;;22.39;100.00;99303.09;4958829;28;20053;-75
2023/10/26 12:17:48;;;;;;;0.88;0.73;;;;;;;22.47;100.00;99311.44;4959619;28;20169;-73
2023/10/26 12:26:57;;;;;;;0.40;0.38;;;;;;;22.31;100.00;99284.03;4972935;28;20122;-77
2023/10/26 12:29:22;;;;;;;0.20;0.20;;;;;;;22.33;100.00;99290.13;4969327;28;20078;-76
2023/10/26 12:31:48;;;;;;;0.65;0.65;;;;;;;22.27;100.00;99263.84;4971392;28;20390;-75
2023/10/26 12:34:14;;;;;;;15.55;1.45;;;;;;;22.39;100.00;99273.69;4967807;28;20030;-77
2023/10/26 12:36:39;;;;;;;0.20;0.17;;;;;;;22.29;100.00;99245.88;4970008;28;20062;-76
2023/10/26 12:39:05;;;;;;;0.55;0.55;;;;;;;22.54;100.00;99291.34;4969378;28;20122;-77
2023/10/26 12:45:13;;;;;;;0.30;0.30;;;;;;;22.55;100.00;99290.41;4973797;28;20517;-78
2023/10/26 12:47:39;;;;;;;1.25;1.08;;;;;;;22.43;100.00;99239.56;4971478;28;20023;-76
2023/10/26 12:50:04;;;;;;;0.20;0.20;;;;;;;22.57;100.00;99268.94;4970908;28;20046;-76
2023/10/26 12:52:30;;;;;;;0.45;0.45;;;;;;;22.65;100.00;99274.59;4975476;28;20583;-76
2023/10/26 12:55:05;;;;;;;0.35;0.28;;;;;;;21.91;100.00;99161.97;4971119;28;20053;-76
2023/10/26 12:57:30;;;;;;;3.20;2.10;;;;;;;22.23;100.00;99203.53;4969351;28;20038;-78
2023/10/26 12:59:56;;;;;;;1.48;0.95;;;;;;;22.67;100.00;99256.63;4977302;28;20023;-77
2023/10/26 13:02:37;;;;;;;0.63;0.63;;;;;;;22.45;100.00;99189.53;4976371;28;20050;-76
2023/10/26 13:05:36;;;;;;;0.10;0.10;;;;;;;22.93;100.00;99262.84;4970450;28;20443;-76
2023/10/26 13:08:01;;;;;;;1.40;0.38;;;;;;;22.82;100.00;99254.72;4998341;28;20069;-78
2023/10/26 13:10:27;;;;;;;1.85;1.00;;;;;;;22.73;100.00;99247.31;4967586;28;20046;-77
2023/10/26 13:12:52;;;;;;;0.10;0.10;;;;;;;22.43;100.00;99170.94;4968748;28;20121;-77
2023/10/26 13:15:29;;;;;;;0.20;0.20;;;;;;;22.77;100.00;99225.59;4974376;28;20064;-78
2023/10/26 13:17:54;;;;;;;0.47;0.47;;;;;;;22.95;100.00;99258.25;4971938;28;20467;-77
2023/10/26 13:20:20;;;;;;;0.52;0.52;;;;;;;22.87;100.00;99241.00;4972866;28;20057;-76
2023/10/26 13:22:45;;;;;;;0.47;0.43;;;;;;;22.18;100.00;99134.31;4967334;28;20035;-76
2023/10/26 13:25:11;;;;;;;0.95;0.95;;;;;;;22.97;100.00;99248.31;4968884;28;20034;-75
2023/10/26 13:27:37;;;;;;;0.70;0.57;;;;;;;22.90;100.00;99240.81;4972475;28;20450;-76
2023/10/26 13:30:03;;;;;;;3.92;1.08;;;;;;;22.58;100.00;99178.88;4972448;28;20034;-77
2023/10/26 13:32:58;;;;;;;0.30;0.30;;;;;;;22.99;100.00;99240.19;4974797;28;20033;-75
2023/10/26 13:47:59;;;;;;;1.20;1.08;;;;;;;22.72;100.00;99233.09;4966805;28;20462;-75
2023/10/26 13:50:34;;;;;;;0.65;0.65;;;;;;;21.37;100.00;99015.13;4954556;28;20049;-74
2023/10/26 14:09:48;;;;;;;1.00;0.55;;;;;;;22.59;100.00;99223.34;4971783;28;20396;-75
2023/10/26 14:12:13;;;;;;;0.65;0.65;;;;;;;22.34;100.00;99217.88;4969591;28;20081;-76
2023/10/26 14:14:39;;;;;;;24.70;0.82;;;;;;;21.86;100.00;99131.16;4973972;28;20018;-74
2023/10/26 14:17:04;;;;;;;3.03;0.63;;;;;;;22.26;100.00;99203.31;4971702;28;20034;-76
2023/10/26 14:23:40;;;;;;;1.48;1.25;;;;;;;22.36;100.00;99219.56;4970352;28;20044;-76
2023/10/26 14:26:06;;;;;;;0.10;0.10;;;;;;;22.03;100.00;99176.31;4968325;28;20130;-75
2023/10/26 14:28:31;;;;;;;0.20;0.20;;;;;;;22.30;100.00;99224.38;4966307;28;20375;-77